This is the latest recevied weather packets stored in our database for station/object NY3Q. If no packets are shown the sender has not sent any weather packets the latest 10 day(s).
| Time | Temp. | Humidity | Pressure | Rain* | Wind** | Luminosity | Snow |
|---|---|---|---|---|---|---|---|
| 1778007169 | 28.89° C | 45% | 1017 hPa | 0 mm | - | 608 W/m² | - |
| 1778006865 | 28.89° C | 45% | 1016.9 hPa | 0 mm | - | 633 W/m² | - |
| 1778006562 | 28.33° C | 48% | 1017 hPa | 0 mm | - | 636 W/m² | - |
| 1778006258 | 28.33° C | 47% | 1017.1 hPa | 0 mm | - | 638 W/m² | - |
| 1778005956 | 27.78° C | 48% | 1016.9 hPa | 0 mm | - | 640 W/m² | - |
| 1778005653 | 27.78° C | 46% | 1017.3 hPa | 0 mm | - | 632 W/m² | - |
| 1778005349 | 27.78° C | 48% | 1017.1 hPa | 0 mm | - | 635 W/m² | - |
| 1778005046 | 27.78° C | 50% | 1017.1 hPa | 0 mm | - | 649 W/m² | - |
| 1778004744 | 27.78° C | 47% | 1017.2 hPa | 0 mm | - | 668 W/m² | - |
| 1778004440 | 27.78° C | 46% | 1017.4 hPa | 0 mm | - | 673 W/m² | - |
| 1778004137 | 27.22° C | 48% | 1017.6 hPa | 0 mm | - | 637 W/m² | - |
| 1778003833 | 27.22° C | 48% | 1017.4 hPa | 0 mm | - | 664 W/m² | - |
| 1778003529 | 27.78° C | 46% | 1017.7 hPa | 0 mm | - | 670 W/m² | - |
| 1778003226 | 28.33° C | 49% | 1017.5 hPa | 0 mm | - | 666 W/m² | - |
| 1778002922 | 27.78° C | 48% | 1017.3 hPa | 0 mm | - | 667 W/m² | - |
| 1778002619 | 26.67° C | 49% | 1017.1 hPa | 0 mm | - | 678 W/m² | - |
| 1778002316 | 27.22° C | 48% | 1017.5 hPa | 0 mm | - | 687 W/m² | - |
| 1778002013 | 27.78° C | 49% | 1017.4 hPa | 0 mm | - | 703 W/m² | - |
| 1778001710 | 26.67° C | 53% | 1017.3 hPa | 0 mm | - | 689 W/m² | - |
| 1778001409 | 27.22° C | 48% | 1017.4 hPa | 0 mm | - | 664 W/m² | - |
| 1778001107 | 27.22° C | 49% | 1017.4 hPa | 0 mm | - | 652 W/m² | - |
| 1778000804 | 27.78° C | 45% | 1017.6 hPa | 0 mm | - | 694 W/m² | - |
| 1778000501 | 27.22° C | 50% | 1017.5 hPa | 0 mm | - | 681 W/m² | - |
| 1778000201 | 27.78° C | 46% | 1017.8 hPa | 0 mm | - | 658 W/m² | - |
| 1777999897 | 28.33° C | 47% | 1017.9 hPa | 0 mm | - | 647 W/m² | - |
* Rain latest hour (hover to see other rain measurements)
** Current wind speed in m/s (hover to see current wind gust speed)